South Bend, Indiana
Current Conditions -  °F | °C
As of 5:54 PM on Friday 19 Dec 2014 (Local Time) from KSBN Reporting Station
Overcast Overcast  
Wind Chill: 25°   Ceiling: 3100
Heat Index: 32°   Visibility: 10mi
Dew Point: 27°   Wind: 8mph
Humidity: 82%   Direction: 240°WSW
Pressure: 30.32"   Gusts: NA
Location:  41.68°N, 86.25°W
Report Text: KSBN 192254Z 24007KT 10SM OVC031 00/M03 A3032 RMK AO2 SLP278 T00001028
Loading
Personal Weather Stations






























Interactive Weather Map New forecast layout! Learn more

10-Day Weather Forecast

Advertisements
Track Severe Weather on mobile